sensor_id;sensor_type;location;lat;lon;timestamp;pressure;altitude;pressure_sealevel;temperature
6454;BMP180;3260;52.438;13.502;2022-07-23T04:01:25;101025.00;;;19.70
6454;BMP180;3260;52.438;13.502;2022-07-23T04:03:54;101008.00;;;19.70
6454;BMP180;3260;52.438;13.502;2022-07-23T04:06:22;101009.00;;;19.60
6454;BMP180;3260;52.438;13.502;2022-07-23T04:08:50;101017.00;;;19.60
6454;BMP180;3260;52.438;13.502;2022-07-23T04:11:18;101005.00;;;19.60
6454;BMP180;3260;52.438;13.502;2022-07-23T04:13:48;101000.00;;;19.90
6454;BMP180;3260;52.438;13.502;2022-07-23T04:16:16;100988.00;;;19.80
6454;BMP180;3260;52.438;13.502;2022-07-23T04:18:45;101002.00;;;19.90
6454;BMP180;3260;52.438;13.502;2022-07-23T04:21:14;101006.00;;;19.90
6454;BMP180;3260;52.438;13.502;2022-07-23T04:23:42;101015.00;;;20.10
6454;BMP180;3260;52.438;13.502;2022-07-23T04:26:10;101009.00;;;19.80
6454;BMP180;3260;52.438;13.502;2022-07-23T04:28:43;100999.00;;;19.70
6454;BMP180;3260;52.438;13.502;2022-07-23T04:31:12;100997.00;;;19.80
6454;BMP180;3260;52.438;13.502;2022-07-23T04:33:40;100993.00;;;20.00
6454;BMP180;3260;52.438;13.502;2022-07-23T04:36:10;100995.00;;;20.20
6454;BMP180;3260;52.438;13.502;2022-07-23T04:38:38;100990.00;;;20.10
6454;BMP180;3260;52.438;13.502;2022-07-23T04:41:06;101003.00;;;20.00
6454;BMP180;3260;52.438;13.502;2022-07-23T04:43:34;101041.00;;;19.40
6454;BMP180;3260;52.438;13.502;2022-07-23T04:46:02;101058.00;;;19.60
6454;BMP180;3260;52.438;13.502;2022-07-23T04:48:32;101044.00;;;20.00
6454;BMP180;3260;52.438;13.502;2022-07-23T04:51:02;101059.00;;;19.90
6454;BMP180;3260;52.438;13.502;2022-07-23T04:53:32;101055.00;;;19.90
6454;BMP180;3260;52.438;13.502;2022-07-23T04:56:00;101051.00;;;19.60
6454;BMP180;3260;52.438;13.502;2022-07-23T04:58:28;101057.00;;;19.70
6454;BMP180;3260;52.438;13.502;2022-07-23T05:00:56;101040.00;;;19.70
6454;BMP180;3260;52.438;13.502;2022-07-23T05:03:24;101022.00;;;19.80
6454;BMP180;3260;52.438;13.502;2022-07-23T05:05:52;101031.00;;;19.70
6454;BMP180;3260;52.438;13.502;2022-07-23T05:08:21;101022.00;;;19.80
6454;BMP180;3260;52.438;13.502;2022-07-23T05:10:50;101013.00;;;19.50
6454;BMP180;3260;52.438;13.502;2022-07-23T05:13:19;101017.00;;;19.20
6454;BMP180;3260;52.438;13.502;2022-07-23T05:15:47;101045.00;;;19.40
6454;BMP180;3260;52.438;13.502;2022-07-23T05:18:15;101024.00;;;19.70
6454;BMP180;3260;52.438;13.502;2022-07-23T05:20:43;101031.00;;;19.90
6454;BMP180;3260;52.438;13.502;2022-07-23T05:23:11;101036.00;;;19.70
6454;BMP180;3260;52.438;13.502;2022-07-23T05:25:40;101036.00;;;19.80
6454;BMP180;3260;52.438;13.502;2022-07-23T05:28:09;101034.00;;;19.70
6454;BMP180;3260;52.438;13.502;2022-07-23T05:30:37;101032.00;;;19.80
6454;BMP180;3260;52.438;13.502;2022-07-23T05:33:05;101036.00;;;19.60
6454;BMP180;3260;52.438;13.502;2022-07-23T05:35:34;101035.00;;;19.90
6454;BMP180;3260;52.438;13.502;2022-07-23T05:38:03;101041.00;;;19.90
6454;BMP180;3260;52.438;13.502;2022-07-23T05:40:31;101037.00;;;19.90
6454;BMP180;3260;52.438;13.502;2022-07-23T05:42:59;101036.00;;;19.90
6454;BMP180;3260;52.438;13.502;2022-07-23T05:45:29;101039.00;;;20.00
6454;BMP180;3260;52.438;13.502;2022-07-23T05:47:57;101041.00;;;20.20
6454;BMP180;3260;52.438;13.502;2022-07-23T05:50:25;101039.00;;;20.20
6454;BMP180;3260;52.438;13.502;2022-07-23T05:52:53;101061.00;;;20.30
6454;BMP180;3260;52.438;13.502;2022-07-23T05:55:21;101068.00;;;20.30
6454;BMP180;3260;52.438;13.502;2022-07-23T05:57:49;101068.00;;;20.30
6454;BMP180;3260;52.438;13.502;2022-07-23T06:00:18;101048.00;;;20.20
6454;BMP180;3260;52.438;13.502;2022-07-23T06:02:47;101045.00;;;20.00
6454;BMP180;3260;52.438;13.502;2022-07-23T06:05:21;101056.00;;;20.00
6454;BMP180;3260;52.438;13.502;2022-07-23T06:07:50;101045.00;;;20.10
6454;BMP180;3260;52.438;13.502;2022-07-23T06:10:19;101045.00;;;20.10
6454;BMP180;3260;52.438;13.502;2022-07-23T06:12:48;101031.00;;;20.10
6454;BMP180;3260;52.438;13.502;2022-07-23T06:15:16;101015.00;;;19.90
6454;BMP180;3260;52.438;13.502;2022-07-23T06:17:44;101036.00;;;20.10
6454;BMP180;3260;52.438;13.502;2022-07-23T06:20:13;101047.00;;;20.00
6454;BMP180;3260;52.438;13.502;2022-07-23T06:22:41;101042.00;;;19.90
6454;BMP180;3260;52.438;13.502;2022-07-23T06:25:09;101040.00;;;20.10
6454;BMP180;3260;52.438;13.502;2022-07-23T06:27:45;101039.00;;;20.20
6454;BMP180;3260;52.438;13.502;2022-07-23T06:30:14;101030.00;;;20.00
6454;BMP180;3260;52.438;13.502;2022-07-23T06:32:44;101022.00;;;20.00
6454;BMP180;3260;52.438;13.502;2022-07-23T06:35:14;101020.00;;;19.80
6454;BMP180;3260;52.438;13.502;2022-07-23T06:37:43;101020.00;;;19.90
6454;BMP180;3260;52.438;13.502;2022-07-23T06:40:14;101031.00;;;19.90
6454;BMP180;3260;52.438;13.502;2022-07-23T06:42:42;101043.00;;;20.00
6454;BMP180;3260;52.438;13.502;2022-07-23T06:45:10;101026.00;;;20.10
6454;BMP180;3260;52.438;13.502;2022-07-23T06:47:39;101015.00;;;20.30
6454;BMP180;3260;52.438;13.502;2022-07-23T06:50:09;101018.00;;;20.20
6454;BMP180;3260;52.438;13.502;2022-07-23T06:52:38;101029.00;;;20.50
6454;BMP180;3260;52.438;13.502;2022-07-23T06:55:09;101032.00;;;20.60
6454;BMP180;3260;52.438;13.502;2022-07-23T06:57:37;101025.00;;;20.80
6454;BMP180;3260;52.438;13.502;2022-07-23T07:00:07;101033.00;;;21.10
6454;BMP180;3260;52.438;13.502;2022-07-23T07:02:35;101036.00;;;21.20
6454;BMP180;3260;52.438;13.502;2022-07-23T07:05:04;101032.00;;;20.90
6454;BMP180;3260;52.438;13.502;2022-07-23T07:07:33;101041.00;;;20.70
6454;BMP180;3260;52.438;13.502;2022-07-23T07:10:03;101042.00;;;20.30
6454;BMP180;3260;52.438;13.502;2022-07-23T07:12:32;101042.00;;;20.70
6454;BMP180;3260;52.438;13.502;2022-07-23T07:15:00;101033.00;;;20.80
6454;BMP180;3260;52.438;13.502;2022-07-23T07:17:28;101026.00;;;21.00
6454;BMP180;3260;52.438;13.502;2022-07-23T07:19:56;101052.00;;;21.00
6454;BMP180;3260;52.438;13.502;2022-07-23T07:22:24;101060.00;;;20.90
6454;BMP180;3260;52.438;13.502;2022-07-23T07:24:52;101063.00;;;20.90
6454;BMP180;3260;52.438;13.502;2022-07-23T07:27:22;101062.00;;;21.10
6454;BMP180;3260;52.438;13.502;2022-07-23T07:29:50;101041.00;;;21.60
6454;BMP180;3260;52.438;13.502;2022-07-23T07:32:18;101050.00;;;21.80
6454;BMP180;3260;52.438;13.502;2022-07-23T07:35:07;101047.00;;;22.10
6454;BMP180;3260;52.438;13.502;2022-07-23T07:37:36;101053.00;;;22.30
6454;BMP180;3260;52.438;13.502;2022-07-23T07:40:05;101048.00;;;22.30
6454;BMP180;3260;52.438;13.502;2022-07-23T07:42:34;101043.00;;;22.80
6454;BMP180;3260;52.438;13.502;2022-07-23T07:45:11;101047.00;;;22.90
6454;BMP180;3260;52.438;13.502;2022-07-23T07:47:39;101045.00;;;23.20
6454;BMP180;3260;52.438;13.502;2022-07-23T07:50:08;101033.00;;;23.30
6454;BMP180;3260;52.438;13.502;2022-07-23T07:52:38;101029.00;;;23.40
6454;BMP180;3260;52.438;13.502;2022-07-23T07:55:09;101017.00;;;23.30
6454;BMP180;3260;52.438;13.502;2022-07-23T07:57:40;101029.00;;;23.10
6454;BMP180;3260;52.438;13.502;2022-07-23T08:00:16;101024.00;;;23.40
6454;BMP180;3260;52.438;13.502;2022-07-23T08:02:48;101023.00;;;23.60
6454;BMP180;3260;52.438;13.502;2022-07-23T08:05:20;101014.00;;;23.90
6454;BMP180;3260;52.438;13.502;2022-07-23T08:07:54;101002.00;;;23.70
6454;BMP180;3260;52.438;13.502;2022-07-23T08:10:23;101006.00;;;23.60
6454;BMP180;3260;52.438;13.502;2022-07-23T08:12:55;101010.00;;;23.30
6454;BMP180;3260;52.438;13.502;2022-07-23T08:15:27;101018.00;;;23.10
6454;BMP180;3260;52.438;13.502;2022-07-23T08:17:56;101023.00;;;22.90
6454;BMP180;3260;52.438;13.502;2022-07-23T08:20:26;101020.00;;;22.80
6454;BMP180;3260;52.438;13.502;2022-07-23T08:22:58;101018.00;;;22.50
6454;BMP180;3260;52.438;13.502;2022-07-23T08:25:29;101019.00;;;22.60
6454;BMP180;3260;52.438;13.502;2022-07-23T08:28:01;101024.00;;;22.80
6454;BMP180;3260;52.438;13.502;2022-07-23T08:30:31;101026.00;;;23.20
6454;BMP180;3260;52.438;13.502;2022-07-23T08:33:02;101027.00;;;23.40
6454;BMP180;3260;52.438;13.502;2022-07-23T08:35:34;101031.00;;;23.50
6454;BMP180;3260;52.438;13.502;2022-07-23T08:38:06;101039.00;;;24.60
6454;BMP180;3260;52.438;13.502;2022-07-23T08:40:37;101031.00;;;25.10
6454;BMP180;3260;52.438;13.502;2022-07-23T08:43:13;101039.00;;;24.80
6454;BMP180;3260;52.438;13.502;2022-07-23T08:45:45;101032.00;;;24.50
6454;BMP180;3260;52.438;13.502;2022-07-23T08:48:15;101038.00;;;24.90
6454;BMP180;3260;52.438;13.502;2022-07-23T08:50:45;101024.00;;;25.30
6454;BMP180;3260;52.438;13.502;2022-07-23T08:53:16;101019.00;;;25.20
6454;BMP180;3260;52.438;13.502;2022-07-23T08:55:45;101019.00;;;25.20
6454;BMP180;3260;52.438;13.502;2022-07-23T08:58:15;101042.00;;;25.30
6454;BMP180;3260;52.438;13.502;2022-07-23T09:00:45;101041.00;;;25.50
6454;BMP180;3260;52.438;13.502;2022-07-23T09:03:17;101044.00;;;25.60
6454;BMP180;3260;52.438;13.502;2022-07-23T09:05:47;101040.00;;;24.20
6454;BMP180;3260;52.438;13.502;2022-07-23T09:08:18;101054.00;;;23.60
6454;BMP180;3260;52.438;13.502;2022-07-23T09:10:54;101052.00;;;24.20
6454;BMP180;3260;52.438;13.502;2022-07-23T09:13:33;101049.00;;;24.60
6454;BMP180;3260;52.438;13.502;2022-07-23T09:16:07;101046.00;;;24.80
6454;BMP180;3260;52.438;13.502;2022-07-23T09:18:40;101058.00;;;25.40
6454;BMP180;3260;52.438;13.502;2022-07-23T09:21:17;101049.00;;;26.00
6454;BMP180;3260;52.438;13.502;2022-07-23T09:23:50;101057.00;;;25.90
6454;BMP180;3260;52.438;13.502;2022-07-23T09:26:32;101054.00;;;25.70
6454;BMP180;3260;52.438;13.502;2022-07-23T09:29:15;101046.00;;;25.90
6454;BMP180;3260;52.438;13.502;2022-07-23T09:31:50;101056.00;;;25.90
6454;BMP180;3260;52.438;13.502;2022-07-23T09:34:21;101045.00;;;26.60
6454;BMP180;3260;52.438;13.502;2022-07-23T09:36:53;101059.00;;;27.00
6454;BMP180;3260;52.438;13.502;2022-07-23T09:39:28;101065.00;;;27.30
6454;BMP180;3260;52.438;13.502;2022-07-23T09:41:58;101071.00;;;27.40
6454;BMP180;3260;52.438;13.502;2022-07-23T09:44:27;101064.00;;;27.00
6454;BMP180;3260;52.438;13.502;2022-07-23T09:46:59;101062.00;;;27.80
6454;BMP180;3260;52.438;13.502;2022-07-23T09:49:28;101074.00;;;27.70
6454;BMP180;3260;52.438;13.502;2022-07-23T09:51:59;101073.00;;;28.00
6454;BMP180;3260;52.438;13.502;2022-07-23T09:54:32;101080.00;;;27.40
6454;BMP180;3260;52.438;13.502;2022-07-23T09:57:05;101080.00;;;27.80
6454;BMP180;3260;52.438;13.502;2022-07-23T09:59:38;101079.00;;;27.90
6454;BMP180;3260;52.438;13.502;2022-07-23T10:02:09;101073.00;;;27.70
6454;BMP180;3260;52.438;13.502;2022-07-23T10:04:39;101082.00;;;28.00
6454;BMP180;3260;52.438;13.502;2022-07-23T10:07:09;101080.00;;;27.40
6454;BMP180;3260;52.438;13.502;2022-07-23T10:09:39;101088.00;;;27.20
6454;BMP180;3260;52.438;13.502;2022-07-23T10:12:12;101091.00;;;26.60
6454;BMP180;3260;52.438;13.502;2022-07-23T10:14:49;101078.00;;;26.60
6454;BMP180;3260;52.438;13.502;2022-07-23T10:17:19;101093.00;;;26.40
6454;BMP180;3260;52.438;13.502;2022-07-23T10:19:47;101096.00;;;26.70
6454;BMP180;3260;52.438;13.502;2022-07-23T10:22:21;101102.00;;;26.10
6454;BMP180;3260;52.438;13.502;2022-07-23T10:25:07;101096.00;;;27.10
6454;BMP180;3260;52.438;13.502;2022-07-23T10:27:59;101096.00;;;28.00
6454;BMP180;3260;52.438;13.502;2022-07-23T10:30:41;101107.00;;;28.70
6454;BMP180;3260;52.438;13.502;2022-07-23T10:33:30;101094.00;;;28.70
6454;BMP180;3260;52.438;13.502;2022-07-23T10:36:08;101075.00;;;29.40
6454;BMP180;3260;52.438;13.502;2022-07-23T10:38:48;101100.00;;;29.60
6454;BMP180;3260;52.438;13.502;2022-07-23T10:41:32;101104.00;;;30.00
6454;BMP180;3260;52.438;13.502;2022-07-23T10:44:09;101105.00;;;29.50
6454;BMP180;3260;52.438;13.502;2022-07-23T10:46:58;101109.00;;;30.70
6454;BMP180;3260;52.438;13.502;2022-07-23T10:49:40;101114.00;;;31.30
6454;BMP180;3260;52.438;13.502;2022-07-23T10:52:32;101112.00;;;29.20
6454;BMP180;3260;52.438;13.502;2022-07-23T10:55:40;101113.00;;;27.10
6454;BMP180;3260;52.438;13.502;2022-07-23T10:58:08;101101.00;;;27.70
6454;BMP180;3260;52.438;13.502;2022-07-23T11:00:37;101109.00;;;28.00
6454;BMP180;3260;52.438;13.502;2022-07-23T11:03:31;101110.00;;;29.10
6454;BMP180;3260;52.438;13.502;2022-07-23T11:06:05;101114.00;;;28.60
6454;BMP180;3260;52.438;13.502;2022-07-23T11:08:34;101118.00;;;28.60
6454;BMP180;3260;52.438;13.502;2022-07-23T11:11:11;101103.00;;;28.70
6454;BMP180;3260;52.438;13.502;2022-07-23T11:13:49;101106.00;;;29.00
6454;BMP180;3260;52.438;13.502;2022-07-23T11:16:21;101107.00;;;29.30
6454;BMP180;3260;52.438;13.502;2022-07-23T11:19:03;101099.00;;;29.40
6454;BMP180;3260;52.438;13.502;2022-07-23T11:21:56;101105.00;;;28.40
6454;BMP180;3260;52.438;13.502;2022-07-23T11:24:25;101092.00;;;28.70
6454;BMP180;3260;52.438;13.502;2022-07-23T11:27:01;101075.00;;;29.50
6454;BMP180;3260;52.438;13.502;2022-07-23T11:29:43;101094.00;;;30.20
6454;BMP180;3260;52.438;13.502;2022-07-23T11:32:36;101099.00;;;30.40
6454;BMP180;3260;52.438;13.502;2022-07-23T11:35:36;101099.00;;;31.00
6454;BMP180;3260;52.438;13.502;2022-07-23T11:38:16;101106.00;;;31.90
6454;BMP180;3260;52.438;13.502;2022-07-23T11:40:49;101107.00;;;32.60
6454;BMP180;3260;52.438;13.502;2022-07-23T11:43:19;101104.00;;;33.30
6454;BMP180;3260;52.438;13.502;2022-07-23T11:45:50;101105.00;;;33.10
6454;BMP180;3260;52.438;13.502;2022-07-23T11:48:20;101109.00;;;34.00
6454;BMP180;3260;52.438;13.502;2022-07-23T11:50:52;101104.00;;;34.20
6454;BMP180;3260;52.438;13.502;2022-07-23T11:53:26;101107.00;;;35.20
6454;BMP180;3260;52.438;13.502;2022-07-23T11:56:03;101108.00;;;35.90
6454;BMP180;3260;52.438;13.502;2022-07-23T11:58:31;101100.00;;;34.10
6454;BMP180;3260;52.438;13.502;2022-07-23T12:00:59;101112.00;;;34.60
6454;BMP180;3260;52.438;13.502;2022-07-23T12:03:28;101103.00;;;33.10
6454;BMP180;3260;52.438;13.502;2022-07-23T12:05:59;101107.00;;;32.70
6454;BMP180;3260;52.438;13.502;2022-07-23T12:08:27;101111.00;;;35.20
6454;BMP180;3260;52.438;13.502;2022-07-23T12:10:56;101104.00;;;34.60
6454;BMP180;3260;52.438;13.502;2022-07-23T12:13:24;101102.00;;;34.70
6454;BMP180;3260;52.438;13.502;2022-07-23T12:15:56;101108.00;;;36.70
6454;BMP180;3260;52.438;13.502;2022-07-23T12:18:26;101109.00;;;37.70
6454;BMP180;3260;52.438;13.502;2022-07-23T12:21:04;101105.00;;;34.20
6454;BMP180;3260;52.438;13.502;2022-07-23T12:23:32;101100.00;;;33.10
6454;BMP180;3260;52.438;13.502;2022-07-23T12:26:02;101094.00;;;31.70
6454;BMP180;3260;52.438;13.502;2022-07-23T12:28:32;101107.00;;;30.40
6454;BMP180;3260;52.438;13.502;2022-07-23T12:31:00;101092.00;;;29.50
6454;BMP180;3260;52.438;13.502;2022-07-23T12:33:31;101087.00;;;29.40
6454;BMP180;3260;52.438;13.502;2022-07-23T12:36:03;101094.00;;;31.10
6454;BMP180;3260;52.438;13.502;2022-07-23T12:38:38;101089.00;;;30.60
6454;BMP180;3260;52.438;13.502;2022-07-23T12:41:08;101090.00;;;31.70
6454;BMP180;3260;52.438;13.502;2022-07-23T12:43:39;101092.00;;;30.90
6454;BMP180;3260;52.438;13.502;2022-07-23T12:46:11;101087.00;;;29.50
6454;BMP180;3260;52.438;13.502;2022-07-23T12:48:52;101089.00;;;29.70
6454;BMP180;3260;52.438;13.502;2022-07-23T12:51:24;101081.00;;;29.60
6454;BMP180;3260;52.438;13.502;2022-07-23T12:53:57;101086.00;;;28.10
6454;BMP180;3260;52.438;13.502;2022-07-23T12:56:29;101086.00;;;28.40
6454;BMP180;3260;52.438;13.502;2022-07-23T12:59:04;101084.00;;;28.90
6454;BMP180;3260;52.438;13.502;2022-07-23T13:01:36;101086.00;;;29.30
6454;BMP180;3260;52.438;13.502;2022-07-23T13:04:07;101084.00;;;31.40
6454;BMP180;3260;52.438;13.502;2022-07-23T13:06:44;101082.00;;;33.00
6454;BMP180;3260;52.438;13.502;2022-07-23T13:09:16;101096.00;;;35.70
6454;BMP180;3260;52.438;13.502;2022-07-23T13:11:46;101094.00;;;36.80
6454;BMP180;3260;52.438;13.502;2022-07-23T13:14:15;101094.00;;;37.90
6454;BMP180;3260;52.438;13.502;2022-07-23T13:16:49;101094.00;;;35.10
6454;BMP180;3260;52.438;13.502;2022-07-23T13:19:18;101092.00;;;34.50
6454;BMP180;3260;52.438;13.502;2022-07-23T13:21:50;101100.00;;;37.70
6454;BMP180;3260;52.438;13.502;2022-07-23T13:24:20;101094.00;;;36.50
6454;BMP180;3260;52.438;13.502;2022-07-23T13:26:48;101067.00;;;36.40
6454;BMP180;3260;52.438;13.502;2022-07-23T13:29:19;101087.00;;;36.00
6454;BMP180;3260;52.438;13.502;2022-07-23T13:31:48;101095.00;;;38.70
6454;BMP180;3260;52.438;13.502;2022-07-23T13:34:17;101079.00;;;42.50
6454;BMP180;3260;52.438;13.502;2022-07-23T13:36:46;101103.00;;;39.90
6454;BMP180;3260;52.438;13.502;2022-07-23T13:39:15;101102.00;;;40.50
6454;BMP180;3260;52.438;13.502;2022-07-23T13:41:43;101104.00;;;38.10
6454;BMP180;3260;52.438;13.502;2022-07-23T13:44:17;101087.00;;;37.40
6454;BMP180;3260;52.438;13.502;2022-07-23T13:46:49;101092.00;;;37.30
6454;BMP180;3260;52.438;13.502;2022-07-23T13:49:17;101106.00;;;37.30
6454;BMP180;3260;52.438;13.502;2022-07-23T13:51:45;101102.00;;;38.30
6454;BMP180;3260;52.438;13.502;2022-07-23T13:54:15;101092.00;;;38.70
6454;BMP180;3260;52.438;13.502;2022-07-23T13:56:44;101101.00;;;40.00
6454;BMP180;3260;52.438;13.502;2022-07-23T13:59:12;101094.00;;;37.60
6454;BMP180;3260;52.438;13.502;2022-07-23T14:01:41;101091.00;;;38.60
6454;BMP180;3260;52.438;13.502;2022-07-23T14:04:29;101086.00;;;37.30
6454;BMP180;3260;52.438;13.502;2022-07-23T14:06:57;101088.00;;;38.30
6454;BMP180;3260;52.438;13.502;2022-07-23T14:09:27;101091.00;;;38.80
6454;BMP180;3260;52.438;13.502;2022-07-23T14:11:56;101083.00;;;36.10
6454;BMP180;3260;52.438;13.502;2022-07-23T14:14:25;101082.00;;;38.70
6454;BMP180;3260;52.438;13.502;2022-07-23T14:16:53;101089.00;;;37.50
6454;BMP180;3260;52.438;13.502;2022-07-23T14:19:23;101077.00;;;39.30
6454;BMP180;3260;52.438;13.502;2022-07-23T14:21:51;101071.00;;;41.50
6454;BMP180;3260;52.438;13.502;2022-07-23T14:24:20;101083.00;;;42.30
6454;BMP180;3260;52.438;13.502;2022-07-23T14:26:49;101087.00;;;42.00
6454;BMP180;3260;52.438;13.502;2022-07-23T14:29:17;101082.00;;;35.70
6454;BMP180;3260;52.438;13.502;2022-07-23T14:31:46;101075.00;;;33.80
6454;BMP180;3260;52.438;13.502;2022-07-23T14:34:15;101077.00;;;35.60
6454;BMP180;3260;52.438;13.502;2022-07-23T14:36:50;101075.00;;;38.80
6454;BMP180;3260;52.438;13.502;2022-07-23T14:39:18;101077.00;;;35.50
6454;BMP180;3260;52.438;13.502;2022-07-23T14:41:48;101073.00;;;32.90
6454;BMP180;3260;52.438;13.502;2022-07-23T14:44:16;101067.00;;;33.80
6454;BMP180;3260;52.438;13.502;2022-07-23T14:46:45;101073.00;;;35.00
6454;BMP180;3260;52.438;13.502;2022-07-23T14:49:14;101072.00;;;38.60
6454;BMP180;3260;52.438;13.502;2022-07-23T14:51:42;101071.00;;;39.10
6454;BMP180;3260;52.438;13.502;2022-07-23T14:54:11;101073.00;;;40.60
6454;BMP180;3260;52.438;13.502;2022-07-23T14:56:41;101067.00;;;39.90
6454;BMP180;3260;52.438;13.502;2022-07-23T14:59:13;101065.00;;;42.20
6454;BMP180;3260;52.438;13.502;2022-07-23T15:01:41;101074.00;;;44.90
6454;BMP180;3260;52.438;13.502;2022-07-23T15:04:09;101072.00;;;43.80
6454;BMP180;3260;52.438;13.502;2022-07-23T15:06:57;101078.00;;;40.00
6454;BMP180;3260;52.438;13.502;2022-07-23T15:09:25;101072.00;;;41.70
6454;BMP180;3260;52.438;13.502;2022-07-23T15:11:55;101078.00;;;43.70
6454;BMP180;3260;52.438;13.502;2022-07-23T15:14:25;101068.00;;;41.70
6454;BMP180;3260;52.438;13.502;2022-07-23T15:17:00;101069.00;;;43.70
6454;BMP180;3260;52.438;13.502;2022-07-23T15:19:29;101072.00;;;45.50
6454;BMP180;3260;52.438;13.502;2022-07-23T15:21:57;101066.00;;;46.80
6454;BMP180;3260;52.438;13.502;2022-07-23T15:24:28;101070.00;;;46.60
6454;BMP180;3260;52.438;13.502;2022-07-23T15:26:56;101073.00;;;42.50
6454;BMP180;3260;52.438;13.502;2022-07-23T15:29:26;101072.00;;;40.90
6454;BMP180;3260;52.438;13.502;2022-07-23T15:32:14;101063.00;;;37.90
6454;BMP180;3260;52.438;13.502;2022-07-23T15:34:43;101062.00;;;36.00
6454;BMP180;3260;52.438;13.502;2022-07-23T15:37:13;101061.00;;;35.00
6454;BMP180;3260;52.438;13.502;2022-07-23T15:39:43;101066.00;;;33.90
6454;BMP180;3260;52.438;13.502;2022-07-23T15:42:12;101058.00;;;34.20
6454;BMP180;3260;52.438;13.502;2022-07-23T15:44:42;101057.00;;;33.00
6454;BMP180;3260;52.438;13.502;2022-07-23T15:47:15;101059.00;;;33.70
6454;BMP180;3260;52.438;13.502;2022-07-23T15:49:44;101051.00;;;33.50
6454;BMP180;3260;52.438;13.502;2022-07-23T15:52:13;101054.00;;;32.20
6454;BMP180;3260;52.438;13.502;2022-07-23T15:54:42;101048.00;;;33.30
6454;BMP180;3260;52.438;13.502;2022-07-23T15:57:10;101059.00;;;33.60
6454;BMP180;3260;52.438;13.502;2022-07-23T15:59:38;101061.00;;;32.90
6454;BMP180;3260;52.438;13.502;2022-07-23T16:02:09;101057.00;;;32.90
6454;BMP180;3260;52.438;13.502;2022-07-23T16:04:38;101058.00;;;31.80
6454;BMP180;3260;52.438;13.502;2022-07-23T16:07:06;101064.00;;;33.00
6454;BMP180;3260;52.438;13.502;2022-07-23T16:09:40;101058.00;;;36.30
6454;BMP180;3260;52.438;13.502;2022-07-23T16:12:09;101069.00;;;35.60
6454;BMP180;3260;52.438;13.502;2022-07-23T16:14:37;101061.00;;;32.00
6454;BMP180;3260;52.438;13.502;2022-07-23T16:17:07;101064.00;;;32.40
6454;BMP180;3260;52.438;13.502;2022-07-23T16:19:36;101061.00;;;32.90
6454;BMP180;3260;52.438;13.502;2022-07-23T16:22:04;101054.00;;;32.60
6454;BMP180;3260;52.438;13.502;2022-07-23T16:24:32;101053.00;;;32.20
6454;BMP180;3260;52.438;13.502;2022-07-23T16:27:01;101069.00;;;34.40
6454;BMP180;3260;52.438;13.502;2022-07-23T16:29:32;101057.00;;;37.30
6454;BMP180;3260;52.438;13.502;2022-07-23T16:32:00;101063.00;;;40.30
6454;BMP180;3260;52.438;13.502;2022-07-23T16:34:30;101064.00;;;38.00
6454;BMP180;3260;52.438;13.502;2022-07-23T16:36:58;101052.00;;;38.50
6454;BMP180;3260;52.438;13.502;2022-07-23T16:39:26;101065.00;;;37.00
6454;BMP180;3260;52.438;13.502;2022-07-23T16:41:54;101054.00;;;35.40
6454;BMP180;3260;52.438;13.502;2022-07-23T16:44:22;101056.00;;;31.50
6454;BMP180;3260;52.438;13.502;2022-07-23T16:46:50;101054.00;;;30.80
6454;BMP180;3260;52.438;13.502;2022-07-23T16:49:18;101057.00;;;32.10
6454;BMP180;3260;52.438;13.502;2022-07-23T16:51:48;101061.00;;;31.80
6454;BMP180;3260;52.438;13.502;2022-07-23T16:54:16;101057.00;;;33.20
6454;BMP180;3260;52.438;13.502;2022-07-23T16:56:47;101067.00;;;35.70
6454;BMP180;3260;52.438;13.502;2022-07-23T16:59:15;101072.00;;;37.00
6454;BMP180;3260;52.438;13.502;2022-07-23T17:01:43;101066.00;;;37.60
6454;BMP180;3260;52.438;13.502;2022-07-23T17:04:11;101063.00;;;39.50
6454;BMP180;3260;52.438;13.502;2022-07-23T17:06:40;101076.00;;;39.20
6454;BMP180;3260;52.438;13.502;2022-07-23T17:09:09;101076.00;;;38.20
6454;BMP180;3260;52.438;13.502;2022-07-23T17:11:38;101081.00;;;39.30
6454;BMP180;3260;52.438;13.502;2022-07-23T17:14:06;101080.00;;;38.90
6454;BMP180;3260;52.438;13.502;2022-07-23T17:16:40;101082.00;;;38.20
6454;BMP180;3260;52.438;13.502;2022-07-23T17:19:08;101079.00;;;37.80
6454;BMP180;3260;52.438;13.502;2022-07-23T17:21:36;101079.00;;;36.20
6454;BMP180;3260;52.438;13.502;2022-07-23T17:24:05;101082.00;;;35.40
6454;BMP180;3260;52.438;13.502;2022-07-23T17:26:39;101088.00;;;33.60
6454;BMP180;3260;52.438;13.502;2022-07-23T17:29:11;101086.00;;;31.70
6454;BMP180;3260;52.438;13.502;2022-07-23T17:31:39;101081.00;;;31.30
6454;BMP180;3260;52.438;13.502;2022-07-23T17:34:08;101088.00;;;30.40
6454;BMP180;3260;52.438;13.502;2022-07-23T17:36:36;101077.00;;;31.80
6454;BMP180;3260;52.438;13.502;2022-07-23T17:39:06;101089.00;;;33.50
6454;BMP180;3260;52.438;13.502;2022-07-23T17:41:35;101092.00;;;34.90
6454;BMP180;3260;52.438;13.502;2022-07-23T17:44:05;101090.00;;;33.80
6454;BMP180;3260;52.438;13.502;2022-07-23T17:46:33;101090.00;;;34.60
6454;BMP180;3260;52.438;13.502;2022-07-23T17:49:01;101090.00;;;34.60
6454;BMP180;3260;52.438;13.502;2022-07-23T17:51:29;101080.00;;;34.50
6454;BMP180;3260;52.438;13.502;2022-07-23T17:53:58;101087.00;;;34.60
6454;BMP180;3260;52.438;13.502;2022-07-23T17:56:26;101082.00;;;34.20
6454;BMP180;3260;52.438;13.502;2022-07-23T17:58:55;101086.00;;;33.40
6454;BMP180;3260;52.438;13.502;2022-07-23T18:01:24;101090.00;;;33.50
6454;BMP180;3260;52.438;13.502;2022-07-23T18:03:52;101083.00;;;33.80
6454;BMP180;3260;52.438;13.502;2022-07-23T18:06:21;101099.00;;;33.10
6454;BMP180;3260;52.438;13.502;2022-07-23T18:08:50;101094.00;;;32.60
6454;BMP180;3260;52.438;13.502;2022-07-23T18:11:19;101091.00;;;29.70
6454;BMP180;3260;52.438;13.502;2022-07-23T18:13:47;101100.00;;;30.10
6454;BMP180;3260;52.438;13.502;2022-07-23T18:16:16;101099.00;;;28.80
6454;BMP180;3260;52.438;13.502;2022-07-23T18:18:46;101091.00;;;27.30
6454;BMP180;3260;52.438;13.502;2022-07-23T18:21:14;101103.00;;;26.90
6454;BMP180;3260;52.438;13.502;2022-07-23T18:23:42;101104.00;;;26.10
6454;BMP180;3260;52.438;13.502;2022-07-23T18:26:10;101103.00;;;25.60
6454;BMP180;3260;52.438;13.502;2022-07-23T18:28:41;101103.00;;;25.30
6454;BMP180;3260;52.438;13.502;2022-07-23T18:31:10;101093.00;;;25.00